sensor_id;sensor_type;location;lat;lon;timestamp;pressure;altitude;pressure_sealevel;temperature;humidity
56038;BME280;41907;47.848;9.000;2023-02-10T00:02:22;97510.63;;;-4.47;100.00
56038;BME280;41907;47.848;9.000;2023-02-10T00:04:48;97508.66;;;-4.45;100.00
56038;BME280;41907;47.848;9.000;2023-02-10T00:07:13;97507.91;;;-4.62;100.00
56038;BME280;41907;47.848;9.000;2023-02-10T00:09:38;97516.09;;;-4.73;100.00
56038;BME280;41907;47.848;9.000;2023-02-10T00:12:04;97515.59;;;-4.76;100.00
56038;BME280;41907;47.848;9.000;2023-02-10T00:14:30;97513.97;;;-4.77;100.00
56038;BME280;41907;47.848;9.000;2023-02-10T00:16:56;97518.22;;;-4.84;100.00
56038;BME280;41907;47.848;9.000;2023-02-10T00:19:23;97517.09;;;-4.90;100.00
56038;BME280;41907;47.848;9.000;2023-02-10T00:21:48;97519.69;;;-4.90;100.00
56038;BME280;41907;47.848;9.000;2023-02-10T00:24:14;97532.53;;;-4.89;100.00
56038;BME280;41907;47.848;9.000;2023-02-10T00:26:40;97533.03;;;-4.85;100.00
56038;BME280;41907;47.848;9.000;2023-02-10T00:29:05;97531.09;;;-4.83;100.00
56038;BME280;41907;47.848;9.000;2023-02-10T00:31:30;97532.03;;;-4.76;100.00
56038;BME280;41907;47.848;9.000;2023-02-10T00:33:56;97539.00;;;-4.68;100.00
56038;BME280;41907;47.848;9.000;2023-02-10T00:36:21;97539.00;;;-4.68;100.00
56038;BME280;41907;47.848;9.000;2023-02-10T00:38:48;97542.56;;;-4.61;100.00
56038;BME280;41907;47.848;9.000;2023-02-10T00:41:15;97550.16;;;-4.52;100.00
56038;BME280;41907;47.848;9.000;2023-02-10T00:43:41;97546.38;;;-4.41;100.00
56038;BME280;41907;47.848;9.000;2023-02-10T00:46:09;97552.34;;;-4.63;100.00
56038;BME280;41907;47.848;9.000;2023-02-10T00:48:35;97558.63;;;-4.50;100.00
56038;BME280;41907;47.848;9.000;2023-02-10T00:51:01;97553.88;;;-4.38;100.00
56038;BME280;41907;47.848;9.000;2023-02-10T00:53:27;97555.47;;;-4.29;100.00
56038;BME280;41907;47.848;9.000;2023-02-10T00:55:52;97546.53;;;-4.34;100.00
56038;BME280;41907;47.848;9.000;2023-02-10T00:58:17;97547.09;;;-4.55;100.00
56038;BME280;41907;47.848;9.000;2023-02-10T01:00:44;97549.25;;;-4.67;100.00
56038;BME280;41907;47.848;9.000;2023-02-10T01:03:09;97553.97;;;-4.70;100.00
56038;BME280;41907;47.848;9.000;2023-02-10T01:05:35;97557.91;;;-4.91;100.00
56038;BME280;41907;47.848;9.000;2023-02-10T01:08:00;97560.53;;;-4.99;100.00
56038;BME280;41907;47.848;9.000;2023-02-10T01:10:26;97566.25;;;-5.03;100.00
56038;BME280;41907;47.848;9.000;2023-02-10T01:12:51;97562.19;;;-5.06;100.00
56038;BME280;41907;47.848;9.000;2023-02-10T01:15:16;97557.47;;;-5.02;100.00
56038;BME280;41907;47.848;9.000;2023-02-10T01:17:42;97565.13;;;-5.01;100.00
56038;BME280;41907;47.848;9.000;2023-02-10T01:20:07;97562.19;;;-5.06;100.00
56038;BME280;41907;47.848;9.000;2023-02-10T01:22:33;97567.22;;;-5.12;100.00
56038;BME280;41907;47.848;9.000;2023-02-10T01:24:59;97571.13;;;-5.25;100.00
56038;BME280;41907;47.848;9.000;2023-02-10T01:27:24;97572.94;;;-5.33;100.00
56038;BME280;41907;47.848;9.000;2023-02-10T01:29:50;97574.56;;;-5.32;100.00
56038;BME280;41907;47.848;9.000;2023-02-10T01:32:15;97567.25;;;-5.29;100.00
56038;BME280;41907;47.848;9.000;2023-02-10T01:34:40;97564.97;;;-5.32;100.00
56038;BME280;41907;47.848;9.000;2023-02-10T01:37:06;97571.97;;;-5.32;100.00
56038;BME280;41907;47.848;9.000;2023-02-10T01:39:31;97566.09;;;-5.34;100.00
56038;BME280;41907;47.848;9.000;2023-02-10T01:41:56;97572.63;;;-5.30;100.00
56038;BME280;41907;47.848;9.000;2023-02-10T01:46:48;97574.88;;;-5.19;100.00
56038;BME280;41907;47.848;9.000;2023-02-10T01:49:18;97570.66;;;-5.20;100.00
56038;BME280;41907;47.848;9.000;2023-02-10T01:51:47;97580.56;;;-5.23;100.00
56038;BME280;41907;47.848;9.000;2023-02-10T01:54:19;97589.03;;;-5.21;100.00
56038;BME280;41907;47.848;9.000;2023-02-10T01:56:45;97593.41;;;-5.14;100.00
56038;BME280;41907;47.848;9.000;2023-02-10T01:59:12;97589.03;;;-5.13;100.00
56038;BME280;41907;47.848;9.000;2023-02-10T02:01:37;97588.53;;;-5.17;100.00
56038;BME280;41907;47.848;9.000;2023-02-10T02:04:03;97595.50;;;-5.26;100.00
56038;BME280;41907;47.848;9.000;2023-02-10T02:06:28;97586.75;;;-5.33;100.00
56038;BME280;41907;47.848;9.000;2023-02-10T02:08:54;97584.97;;;-5.32;100.00
56038;BME280;41907;47.848;9.000;2023-02-10T02:21:45;97578.28;;;-5.51;100.00
56038;BME280;41907;47.848;9.000;2023-02-10T02:24:21;97570.66;;;-5.60;100.00
56038;BME280;41907;47.848;9.000;2023-02-10T02:33:27;97566.25;;;-5.68;100.00
56038;BME280;41907;47.848;9.000;2023-02-10T02:36:01;97572.41;;;-5.77;100.00
56038;BME280;41907;47.848;9.000;2023-02-10T02:38:29;97577.25;;;-5.82;100.00
56038;BME280;41907;47.848;9.000;2023-02-10T02:40:55;97571.94;;;-5.89;100.00
56038;BME280;41907;47.848;9.000;2023-02-10T02:43:21;97580.34;;;-5.87;100.00
56038;BME280;41907;47.848;9.000;2023-02-10T02:45:59;97570.44;;;-5.83;100.00
56038;BME280;41907;47.848;9.000;2023-02-10T02:48:34;97584.59;;;-5.86;100.00
56038;BME280;41907;47.848;9.000;2023-02-10T02:57:10;97582.31;;;-5.73;100.00
56038;BME280;41907;47.848;9.000;2023-02-10T02:59:49;97579.41;;;-5.70;100.00
56038;BME280;41907;47.848;9.000;2023-02-10T03:02:17;97581.78;;;-5.84;100.00
56038;BME280;41907;47.848;9.000;2023-02-10T03:04:47;97583.75;;;-5.86;100.00
56038;BME280;41907;47.848;9.000;2023-02-10T03:07:13;97589.13;;;-5.80;100.00
56038;BME280;41907;47.848;9.000;2023-02-10T03:09:39;97583.63;;;-5.77;100.00
56038;BME280;41907;47.848;9.000;2023-02-10T03:12:06;97576.47;;;-5.75;100.00
56038;BME280;41907;47.848;9.000;2023-02-10T03:14:31;97578.09;;;-5.74;100.00
56038;BME280;41907;47.848;9.000;2023-02-10T03:16:56;97583.94;;;-5.80;100.00
56038;BME280;41907;47.848;9.000;2023-02-10T03:19:22;97586.03;;;-5.83;100.00
56038;BME280;41907;47.848;9.000;2023-02-10T03:21:47;97590.41;;;-5.84;100.00
56038;BME280;41907;47.848;9.000;2023-02-10T03:24:13;97582.47;;;-5.90;100.00
56038;BME280;41907;47.848;9.000;2023-02-10T03:26:39;97579.34;;;-6.02;100.00
56038;BME280;41907;47.848;9.000;2023-02-10T03:29:05;97579.34;;;-6.02;100.00
56038;BME280;41907;47.848;9.000;2023-02-10T03:31:31;97580.66;;;-6.06;100.00
56038;BME280;41907;47.848;9.000;2023-02-10T03:33:57;97591.47;;;-6.19;100.00
56038;BME280;41907;47.848;9.000;2023-02-10T03:36:23;97586.25;;;-6.27;100.00
56038;BME280;41907;47.848;9.000;2023-02-10T03:38:48;97594.19;;;-6.28;100.00
56038;BME280;41907;47.848;9.000;2023-02-10T03:41:13;97591.47;;;-6.27;100.00
56038;BME280;41907;47.848;9.000;2023-02-10T03:43:39;97585.63;;;-6.21;100.00
56038;BME280;41907;47.848;9.000;2023-02-10T03:46:06;97592.56;;;-6.29;100.00
56038;BME280;41907;47.848;9.000;2023-02-10T03:48:31;97593.69;;;-6.32;100.00
56038;BME280;41907;47.848;9.000;2023-02-10T03:50:58;97596.94;;;-6.30;100.00
56038;BME280;41907;47.848;9.000;2023-02-10T03:53:24;97596.09;;;-6.39;100.00
56038;BME280;41907;47.848;9.000;2023-02-10T03:55:50;97599.19;;;-6.43;100.00
56038;BME280;41907;47.848;9.000;2023-02-10T03:58:16;97611.50;;;-6.45;100.00
56038;BME280;41907;47.848;9.000;2023-02-10T04:00:41;97609.38;;;-6.42;100.00
56038;BME280;41907;47.848;9.000;2023-02-10T04:03:06;97608.97;;;-6.29;100.00
56038;BME280;41907;47.848;9.000;2023-02-10T04:05:32;97609.00;;;-6.21;100.00
56038;BME280;41907;47.848;9.000;2023-02-10T04:07:57;97617.97;;;-6.15;100.00
56038;BME280;41907;47.848;9.000;2023-02-10T04:10:22;97618.13;;;-6.09;100.00
56038;BME280;41907;47.848;9.000;2023-02-10T04:12:48;97615.25;;;-6.06;100.00
56038;BME280;41907;47.848;9.000;2023-02-10T04:15:14;97624.19;;;-6.00;100.00
56038;BME280;41907;47.848;9.000;2023-02-10T04:17:40;97620.75;;;-6.01;100.00
56038;BME280;41907;47.848;9.000;2023-02-10T04:20:05;97629.22;;;-5.98;100.00
56038;BME280;41907;47.848;9.000;2023-02-10T04:22:31;97623.88;;;-5.97;100.00
56038;BME280;41907;47.848;9.000;2023-02-10T04:24:56;97623.88;;;-5.97;100.00
56038;BME280;41907;47.848;9.000;2023-02-10T04:27:22;97618.53;;;-5.95;100.00
56038;BME280;41907;47.848;9.000;2023-02-10T04:29:47;97623.66;;;-6.04;100.00
56038;BME280;41907;47.848;9.000;2023-02-10T04:32:12;97625.28;;;-6.03;100.00
56038;BME280;41907;47.848;9.000;2023-02-10T04:34:38;97628.69;;;-6.10;100.00
56038;BME280;41907;47.848;9.000;2023-02-10T04:37:03;97627.19;;;-6.21;100.00
56038;BME280;41907;47.848;9.000;2023-02-10T04:39:28;97628.81;;;-6.20;100.00
56038;BME280;41907;47.848;9.000;2023-02-10T04:41:54;97626.91;;;-6.10;100.00
56038;BME280;41907;47.848;9.000;2023-02-10T04:44:19;97616.91;;;-6.30;100.00
56038;BME280;41907;47.848;9.000;2023-02-10T04:46:45;97621.09;;;-6.38;100.00
56038;BME280;41907;47.848;9.000;2023-02-10T04:49:10;97622.03;;;-6.47;100.00
56038;BME280;41907;47.848;9.000;2023-02-10T04:51:35;97629.00;;;-6.47;100.00
56038;BME280;41907;47.848;9.000;2023-02-10T04:54:01;97623.63;;;-6.54;100.00
56038;BME280;41907;47.848;9.000;2023-02-10T04:56:26;97634.56;;;-6.68;100.00
56038;BME280;41907;47.848;9.000;2023-02-10T04:58:51;97629.50;;;-6.69;100.00
56038;BME280;41907;47.848;9.000;2023-02-10T05:01:17;97633.28;;;-6.64;100.00
56038;BME280;41907;47.848;9.000;2023-02-10T05:03:42;97628.56;;;-6.43;100.00
56038;BME280;41907;47.848;9.000;2023-02-10T05:06:10;97631.78;;;-6.41;100.00
56038;BME280;41907;47.848;9.000;2023-02-10T05:08:36;97633.78;;;-6.34;100.00
56038;BME280;41907;47.848;9.000;2023-02-10T05:11:06;97636.16;;;-6.41;100.00
56038;BME280;41907;47.848;9.000;2023-02-10T05:13:32;97638.88;;;-6.51;100.00
56038;BME280;41907;47.848;9.000;2023-02-10T05:15:57;97638.28;;;-6.45;100.00
56038;BME280;41907;47.848;9.000;2023-02-10T05:18:23;97625.88;;;-6.51;100.00
56038;BME280;41907;47.848;9.000;2023-02-10T05:20:48;97638.00;;;-6.59;100.00
56038;BME280;41907;47.848;9.000;2023-02-10T05:23:13;97629.59;;;-6.61;100.00
56038;BME280;41907;47.848;9.000;2023-02-10T05:25:39;97630.50;;;-6.70;100.00
56038;BME280;41907;47.848;9.000;2023-02-10T05:28:04;97635.50;;;-6.69;100.00
56038;BME280;41907;47.848;9.000;2023-02-10T05:30:29;97631.25;;;-6.78;100.00
56038;BME280;41907;47.848;9.000;2023-02-10T05:32:55;97630.28;;;-6.77;100.00
56038;BME280;41907;47.848;9.000;2023-02-10T05:35:20;97624.59;;;-6.81;100.00
56038;BME280;41907;47.848;9.000;2023-02-10T05:37:45;97635.78;;;-6.80;100.00
56038;BME280;41907;47.848;9.000;2023-02-10T05:40:11;97627.78;;;-6.87;100.00
56038;BME280;41907;47.848;9.000;2023-02-10T05:42:36;97630.84;;;-6.91;100.00
56038;BME280;41907;47.848;9.000;2023-02-10T05:45:02;97632.56;;;-7.00;100.00
56038;BME280;41907;47.848;9.000;2023-02-10T05:47:27;97641.81;;;-6.97;100.00
56038;BME280;41907;47.848;9.000;2023-02-10T05:49:52;97643.97;;;-6.93;100.00
56038;BME280;41907;47.848;9.000;2023-02-10T05:52:18;97644.69;;;-6.83;100.00
56038;BME280;41907;47.848;9.000;2023-02-10T05:54:43;97654.00;;;-6.72;100.00
56038;BME280;41907;47.848;9.000;2023-02-10T05:57:08;97651.41;;;-6.72;100.00
56038;BME280;41907;47.848;9.000;2023-02-10T05:59:34;97655.31;;;-6.68;100.00
56038;BME280;41907;47.848;9.000;2023-02-10T06:01:59;97660.16;;;-6.73;100.00
56038;BME280;41907;47.848;9.000;2023-02-10T06:04:24;97661.25;;;-6.76;100.00
56038;BME280;41907;47.848;9.000;2023-02-10T06:06:50;97670.63;;;-6.83;100.00
56038;BME280;41907;47.848;9.000;2023-02-10T06:09:16;97673.22;;;-6.83;100.00
56038;BME280;41907;47.848;9.000;2023-02-10T06:11:41;97670.16;;;-6.78;100.00
56038;BME280;41907;47.848;9.000;2023-02-10T06:14:06;97676.53;;;-6.72;100.00
56038;BME280;41907;47.848;9.000;2023-02-10T06:16:32;97678.16;;;-6.71;100.00
56038;BME280;41907;47.848;9.000;2023-02-10T06:18:57;97686.59;;;-6.69;100.00
56038;BME280;41907;47.848;9.000;2023-02-10T06:21:23;97686.16;;;-6.65;100.00
56038;BME280;41907;47.848;9.000;2023-02-10T06:23:49;97686.97;;;-6.64;100.00
56038;BME280;41907;47.848;9.000;2023-02-10T06:26:14;97688.28;;;-6.60;100.00
56038;BME280;41907;47.848;9.000;2023-02-10T06:28:40;97687.50;;;-6.61;100.00
56038;BME280;41907;47.848;9.000;2023-02-10T06:31:05;97693.19;;;-6.57;100.00
56038;BME280;41907;47.848;9.000;2023-02-10T06:33:32;97690.28;;;-6.54;100.00
56038;BME280;41907;47.848;9.000;2023-02-10T06:35:59;97691.59;;;-6.50;100.00
56038;BME280;41907;47.848;9.000;2023-02-10T06:38:27;97694.72;;;-6.47;100.00
56038;BME280;41907;47.848;9.000;2023-02-10T06:40:52;97697.00;;;-6.44;100.00
56038;BME280;41907;47.848;9.000;2023-02-10T06:43:18;97712.78;;;-6.37;100.00
56038;BME280;41907;47.848;9.000;2023-02-10T06:45:43;97697.72;;;-6.33;100.00
56038;BME280;41907;47.848;9.000;2023-02-10T06:48:08;97700.50;;;-6.27;100.00
56038;BME280;41907;47.848;9.000;2023-02-10T06:50:34;97702.28;;;-6.27;100.00
56038;BME280;41907;47.848;9.000;2023-02-10T06:52:59;97698.72;;;-6.26;100.00
56038;BME280;41907;47.848;9.000;2023-02-10T06:55:24;97698.09;;;-6.20;100.00
56038;BME280;41907;47.848;9.000;2023-02-10T06:57:50;97713.00;;;-6.22;100.00
56038;BME280;41907;47.848;9.000;2023-02-10T07:00:15;97703.97;;;-6.18;100.00
56038;BME280;41907;47.848;9.000;2023-02-10T07:02:41;97704.94;;;-6.19;100.00
56038;BME280;41907;47.848;9.000;2023-02-10T07:05:07;97715.38;;;-6.03;100.00
56038;BME280;41907;47.848;9.000;2023-02-10T07:07:34;97711.91;;;-6.20;100.00
56038;BME280;41907;47.848;9.000;2023-02-10T07:10:00;97701.81;;;-5.97;100.00
56038;BME280;41907;47.848;9.000;2023-02-10T07:12:25;97711.56;;;-5.41;100.00
56038;BME280;41907;47.848;9.000;2023-02-10T07:14:51;97709.81;;;-4.27;100.00
56038;BME280;41907;47.848;9.000;2023-02-10T07:17:17;97707.19;;;-3.10;100.00
56038;BME280;41907;47.848;9.000;2023-02-10T07:19:43;97703.16;;;-2.52;96.79
56038;BME280;41907;47.848;9.000;2023-02-10T07:22:08;97700.44;;;-1.92;92.51
56038;BME280;41907;47.848;9.000;2023-02-10T07:24:34;97702.75;;;-1.67;88.47
56038;BME280;41907;47.848;9.000;2023-02-10T07:26:59;97702.59;;;-1.15;85.81
56038;BME280;41907;47.848;9.000;2023-02-10T07:29:25;97701.88;;;-0.66;81.91
56038;BME280;41907;47.848;9.000;2023-02-10T07:31:50;97707.31;;;-0.12;79.89
56038;BME280;41907;47.848;9.000;2023-02-10T07:34:16;97712.78;;;-0.07;78.12
56038;BME280;41907;47.848;9.000;2023-02-10T07:36:45;97715.84;;;0.79;75.60
56038;BME280;41907;47.848;9.000;2023-02-10T07:39:10;97719.47;;;0.64;72.84
56038;BME280;41907;47.848;9.000;2023-02-10T07:41:36;97716.28;;;0.82;73.34
56038;BME280;41907;47.848;9.000;2023-02-10T07:44:01;97710.34;;;1.54;70.90
56038;BME280;41907;47.848;9.000;2023-02-10T07:46:26;97717.91;;;2.54;67.70
56038;BME280;41907;47.848;9.000;2023-02-10T07:48:52;97717.66;;;3.45;63.57
56038;BME280;41907;47.848;9.000;2023-02-10T07:51:17;97723.81;;;4.14;60.47
56038;BME280;41907;47.848;9.000;2023-02-10T07:53:42;97725.44;;;4.69;57.40
56038;BME280;41907;47.848;9.000;2023-02-10T07:56:08;97726.00;;;5.08;56.28
56038;BME280;41907;47.848;9.000;2023-02-10T07:58:35;97729.19;;;5.70;53.57
56038;BME280;41907;47.848;9.000;2023-02-10T08:01:05;97734.22;;;6.13;51.90
56038;BME280;41907;47.848;9.000;2023-02-10T08:03:31;97734.09;;;6.19;50.16
56038;BME280;41907;47.848;9.000;2023-02-10T08:05:56;97735.38;;;5.64;51.83
56038;BME280;41907;47.848;9.000;2023-02-10T08:08:21;97732.59;;;6.12;51.28
56038;BME280;41907;47.848;9.000;2023-02-10T08:10:47;97736.63;;;7.01;48.78
56038;BME280;41907;47.848;9.000;2023-02-10T08:13:12;97731.25;;;7.53;47.34
56038;BME280;41907;47.848;9.000;2023-02-10T08:15:37;97726.91;;;7.97;45.56
56038;BME280;41907;47.848;9.000;2023-02-10T08:18:03;97726.91;;;8.30;45.18
56038;BME280;41907;47.848;9.000;2023-02-10T08:20:28;97735.59;;;8.42;44.88
56038;BME280;41907;47.848;9.000;2023-02-10T08:22:56;97726.44;;;8.72;45.01
56038;BME280;41907;47.848;9.000;2023-02-10T08:25:23;97731.63;;;8.62;43.78
56038;BME280;41907;47.848;9.000;2023-02-10T08:27:48;97730.16;;;8.71;44.36
56038;BME280;41907;47.848;9.000;2023-02-10T08:30:14;97736.56;;;8.53;44.90
56038;BME280;41907;47.848;9.000;2023-02-10T08:32:39;97735.59;;;9.24;43.22
56038;BME280;41907;47.848;9.000;2023-02-10T08:35:05;97735.66;;;9.56;42.02
56038;BME280;41907;47.848;9.000;2023-02-10T08:37:30;97738.94;;;9.95;41.66
56038;BME280;41907;47.848;9.000;2023-02-10T08:39:56;97730.16;;;10.74;39.92
56038;BME280;41907;47.848;9.000;2023-02-10T08:42:21;97734.16;;;10.71;40.14
56038;BME280;41907;47.848;9.000;2023-02-10T08:44:47;97735.88;;;10.98;39.45
56038;BME280;41907;47.848;9.000;2023-02-10T08:47:12;97741.66;;;10.79;39.69
56038;BME280;41907;47.848;9.000;2023-02-10T08:49:40;97743.72;;;10.67;39.68
56038;BME280;41907;47.848;9.000;2023-02-10T08:52:06;97740.97;;;11.04;40.49
56038;BME280;41907;47.848;9.000;2023-02-10T08:54:31;97743.91;;;11.03;40.07
56038;BME280;41907;47.848;9.000;2023-02-10T08:56:57;97742.41;;;11.32;39.75
56038;BME280;41907;47.848;9.000;2023-02-10T08:59:22;97742.81;;;11.91;38.89
56038;BME280;41907;47.848;9.000;2023-02-10T09:01:48;97743.06;;;12.20;38.35
56038;BME280;41907;47.848;9.000;2023-02-10T09:04:13;97743.59;;;11.92;38.46
56038;BME280;41907;47.848;9.000;2023-02-10T09:06:40;97744.13;;;12.45;37.68
56038;BME280;41907;47.848;9.000;2023-02-10T09:09:10;97746.81;;;12.45;38.02
56038;BME280;41907;47.848;9.000;2023-02-10T09:11:36;97747.91;;;12.13;37.55
56038;BME280;41907;47.848;9.000;2023-02-10T09:14:02;97734.50;;;12.08;38.77
56038;BME280;41907;47.848;9.000;2023-02-10T09:16:28;97738.97;;;12.79;37.22
56038;BME280;41907;47.848;9.000;2023-02-10T09:18:53;97742.34;;;13.04;37.18
56038;BME280;41907;47.848;9.000;2023-02-10T09:21:18;97748.78;;;13.19;37.00
56038;BME280;41907;47.848;9.000;2023-02-10T09:23:44;97749.28;;;13.26;36.78
56038;BME280;41907;47.848;9.000;2023-02-10T09:26:09;97749.91;;;12.87;37.93
56038;BME280;41907;47.848;9.000;2023-02-10T09:28:35;97748.88;;;12.78;38.01
56038;BME280;41907;47.848;9.000;2023-02-10T09:31:00;97752.69;;;12.01;38.79
56038;BME280;41907;47.848;9.000;2023-02-10T09:33:26;97755.22;;;13.02;38.45
56038;BME280;41907;47.848;9.000;2023-02-10T09:35:51;97754.50;;;13.51;36.78
56038;BME280;41907;47.848;9.000;2023-02-10T09:38:17;97758.31;;;14.23;36.01
56038;BME280;41907;47.848;9.000;2023-02-10T09:44:01;97761.78;;;14.24;34.10
56038;BME280;41907;47.848;9.000;2023-02-10T09:52:20;97759.13;;;12.41;37.03
56038;BME280;41907;47.848;9.000;2023-02-10T09:54:51;97760.69;;;12.62;37.39
56038;BME280;41907;47.848;9.000;2023-02-10T09:57:23;97764.63;;;12.95;36.91
56038;BME280;41907;47.848;9.000;2023-02-10T09:59:53;97760.22;;;13.34;36.71
56038;BME280;41907;47.848;9.000;2023-02-10T10:02:31;97757.81;;;13.33;36.50
56038;BME280;41907;47.848;9.000;2023-02-10T10:04:59;97744.91;;;14.81;33.76
56038;BME280;41907;47.848;9.000;2023-02-10T10:07:35;97743.38;;;15.60;32.59
56038;BME280;41907;47.848;9.000;2023-02-10T10:12:35;97745.00;;;15.18;32.32
56038;BME280;41907;47.848;9.000;2023-02-10T10:15:00;97738.44;;;15.67;31.69
56038;BME280;41907;47.848;9.000;2023-02-10T10:28:22;97744.94;;;14.76;33.41
56038;BME280;41907;47.848;9.000;2023-02-10T10:31:24;97745.47;;;14.78;33.29
56038;BME280;41907;47.848;9.000;2023-02-10T10:33:52;97741.91;;;14.59;33.72
56038;BME280;41907;47.848;9.000;2023-02-10T10:36:42;97732.59;;;15.97;31.73
56038;BME280;41907;47.848;9.000;2023-02-10T10:39:14;97733.72;;;16.61;30.59
56038;BME280;41907;47.848;9.000;2023-02-10T10:41:43;97731.47;;;16.96;30.34
56038;BME280;41907;47.848;9.000;2023-02-10T10:44:16;97732.84;;;17.34;29.33
56038;BME280;41907;47.848;9.000;2023-02-10T10:49:38;97726.00;;;17.37;29.81
56038;BME280;41907;47.848;9.000;2023-02-10T10:52:23;97728.22;;;17.62;29.30
56038;BME280;41907;47.848;9.000;2023-02-10T10:54:50;97726.19;;;17.68;29.01
56038;BME280;41907;47.848;9.000;2023-02-10T10:57:16;97721.81;;;17.44;29.38
56038;BME280;41907;47.848;9.000;2023-02-10T10:59:48;97718.72;;;17.37;29.59
56038;BME280;41907;47.848;9.000;2023-02-10T11:02:19;97714.03;;;17.43;28.71
56038;BME280;41907;47.848;9.000;2023-02-10T11:04:45;97720.59;;;17.51;28.75
56038;BME280;41907;47.848;9.000;2023-02-10T11:07:17;97717.31;;;17.54;28.77
56038;BME280;41907;47.848;9.000;2023-02-10T11:09:50;97717.19;;;17.59;28.54
56038;BME280;41907;47.848;9.000;2023-02-10T11:14:58;97704.63;;;17.54;28.96
56038;BME280;41907;47.848;9.000;2023-02-10T11:17:34;97700.97;;;17.09;29.24
56038;BME280;41907;47.848;9.000;2023-02-10T11:22:31;97696.41;;;15.90;30.41
56038;BME280;41907;47.848;9.000;2023-02-10T11:25:00;97694.88;;;15.09;31.30
56038;BME280;41907;47.848;9.000;2023-02-10T11:27:26;97697.22;;;15.10;31.82
56038;BME280;41907;47.848;9.000;2023-02-10T11:29:54;97690.34;;;15.66;32.14
56038;BME280;41907;47.848;9.000;2023-02-10T11:32:21;97686.50;;;15.85;31.81
56038;BME280;41907;47.848;9.000;2023-02-10T11:34:50;97683.91;;;16.59;30.70
56038;BME280;41907;47.848;9.000;2023-02-10T11:37:37;97685.66;;;16.22;30.32
56038;BME280;41907;47.848;9.000;2023-02-10T11:40:15;97673.41;;;16.44;31.07
56038;BME280;41907;47.848;9.000;2023-02-10T11:42:46;97682.44;;;16.66;30.16
56038;BME280;41907;47.848;9.000;2023-02-10T11:45:20;97683.13;;;16.86;30.92
56038;BME280;41907;47.848;9.000;2023-02-10T11:47:46;97676.31;;;17.16;29.89
56038;BME280;41907;47.848;9.000;2023-02-10T11:50:27;97687.88;;;17.30;29.48
56038;BME280;41907;47.848;9.000;2023-02-10T11:52:54;97684.28;;;17.21;29.78
56038;BME280;41907;47.848;9.000;2023-02-10T11:55:20;97676.63;;;16.59;29.52
56038;BME280;41907;47.848;9.000;2023-02-10T12:00:56;97679.56;;;15.28;33.23
56038;BME280;41907;47.848;9.000;2023-02-10T12:09:04;97659.91;;;14.37;34.17
56038;BME280;41907;47.848;9.000;2023-02-10T12:11:42;97657.56;;;13.73;35.74
56038;BME280;41907;47.848;9.000;2023-02-10T12:19:47;97645.59;;;14.23;34.60
56038;BME280;41907;47.848;9.000;2023-02-10T12:22:44;97652.06;;;14.46;33.69
56038;BME280;41907;47.848;9.000;2023-02-10T12:25:17;97652.03;;;14.51;33.91
56038;BME280;41907;47.848;9.000;2023-02-10T12:27:59;97655.88;;;13.48;34.76
56038;BME280;41907;47.848;9.000;2023-02-10T12:41:47;97640.91;;;11.57;38.91
56038;BME280;41907;47.848;9.000;2023-02-10T12:54:46;97626.81;;;10.54;39.64
56038;BME280;41907;47.848;9.000;2023-02-10T12:57:39;97626.56;;;10.08;42.79
56038;BME280;41907;47.848;9.000;2023-02-10T13:00:18;97629.34;;;9.87;42.01
56038;BME280;41907;47.848;9.000;2023-02-10T13:02:48;97629.66;;;8.78;45.17
56038;BME280;41907;47.848;9.000;2023-02-10T13:05:18;97623.72;;;8.27;47.73
56038;BME280;41907;47.848;9.000;2023-02-10T13:10:24;97628.63;;;6.85;51.14
56038;BME280;41907;47.848;9.000;2023-02-10T13:12:53;97623.00;;;7.60;50.07
56038;BME280;41907;47.848;9.000;2023-02-10T13:15:41;97618.03;;;8.18;48.25
56038;BME280;41907;47.848;9.000;2023-02-10T13:18:25;97618.59;;;8.04;47.18
56038;BME280;41907;47.848;9.000;2023-02-10T13:23:21;97620.81;;;6.78;51.26
56038;BME280;41907;47.848;9.000;2023-02-10T13:28:53;97616.00;;;7.70;51.00
56038;BME280;41907;47.848;9.000;2023-02-10T13:37:08;97611.31;;;7.27;49.69
56038;BME280;41907;47.848;9.000;2023-02-10T13:39:38;97616.84;;;7.54;50.76
56038;BME280;41907;47.848;9.000;2023-02-10T13:45:00;97617.84;;;8.25;48.86
56038;BME280;41907;47.848;9.000;2023-02-10T13:47:33;97617.28;;;8.23;49.35
56038;BME280;41907;47.848;9.000;2023-02-10T13:50:06;97610.25;;;7.95;47.93
56038;BME280;41907;47.848;9.000;2023-02-10T13:52:34;97612.31;;;7.71;50.44
56038;BME280;41907;47.848;9.000;2023-02-10T13:57:36;97602.63;;;7.65;49.49
56038;BME280;41907;47.848;9.000;2023-02-10T14:02:40;97603.28;;;7.89;50.36
56038;BME280;41907;47.848;9.000;2023-02-10T14:05:22;97603.94;;;7.63;50.32
56038;BME280;41907;47.848;9.000;2023-02-10T14:07:48;97605.06;;;7.50;49.13
56038;BME280;41907;47.848;9.000;2023-02-10T14:12:58;97609.09;;;7.36;48.53
56038;BME280;41907;47.848;9.000;2023-02-10T14:15:31;97606.94;;;7.33;50.65
56038;BME280;41907;47.848;9.000;2023-02-10T14:18:23;97605.72;;;7.40;50.45
56038;BME280;41907;47.848;9.000;2023-02-10T14:21:15;97612.88;;;7.40;50.49
56038;BME280;41907;47.848;9.000;2023-02-10T14:23:49;97603.06;;;7.57;50.21
56038;BME280;41907;47.848;9.000;2023-02-10T14:26:34;97609.41;;;7.73;49.63
56038;BME280;41907;47.848;9.000;2023-02-10T14:29:00;97611.00;;;7.74;49.54
56038;BME280;41907;47.848;9.000;2023-02-10T14:31:29;97612.16;;;7.44;48.56
56038;BME280;41907;47.848;9.000;2023-02-10T14:33:59;97606.59;;;7.13;50.77
56038;BME280;41907;47.848;9.000;2023-02-10T14:36:26;97609.84;;;6.86;50.21
56038;BME280;41907;47.848;9.000;2023-02-10T14:38:57;97618.03;;;6.45;52.29
56038;BME280;41907;47.848;9.000;2023-02-10T14:41:24;97611.25;;;6.49;52.88
56038;BME280;41907;47.848;9.000;2023-02-10T14:43:51;97614.31;;;6.57;53.13
56038;BME280;41907;47.848;9.000;2023-02-10T14:46:23;97613.78;;;6.44;51.26
56038;BME280;41907;47.848;9.000;2023-02-10T14:48:57;97615.53;;;6.38;52.07
56038;BME280;41907;47.848;9.000;2023-02-10T14:51:24;97615.97;;;6.47;51.73
56038;BME280;41907;47.848;9.000;2023-02-10T14:53:50;97619.44;;;6.35;50.81
56038;BME280;41907;47.848;9.000;2023-02-10T14:56:27;97614.28;;;6.29;53.33
56038;BME280;41907;47.848;9.000;2023-02-10T14:58:53;97613.66;;;6.50;51.99